Weather Data

Pearl Creek Farm: 8878 N Farm Road 75, Walnut Grove MO 65770

<== Previous Day (Friday 29 Apr 2016) | Next Day (Sunday 01 May 2016) ==>

Summary Precipitation Data For Saturday 30 April 2016

ElementValueUnits
Precipitation1.26"
NotesStorms yesterday and much of the night.
SourcePearl Creek Farm

Summary Temperature Data For Saturday 30 April 2016

ElementValueUnits
High Temperature73 oF
Low Temperature57 oF
Average Temperature65 oF
High Humidity93 %
Low Humidity59 %
Average Humidity75 %
SourceSpringfield-Branson National Airport (SGF)

Detail Temperature Data For Saturday 30 April 2016

Date / TimeTemp (F)RH (%)Dew Pt (F)Report Date / TimeSource
2016-04-30 00:52:00 61 93 59.0 2017-12-29 17:00:26.17417 Springfield-Branson National Airport (SGF)
2016-04-30 01:52:00 62 90 59.0 2017-12-29 17:00:26.17417 Springfield-Branson National Airport (SGF)
2016-04-30 02:52:00 62 90 59.0 2017-12-29 17:00:26.17417 Springfield-Branson National Airport (SGF)
2016-04-30 03:52:00 62 86 58.0 2017-12-29 17:00:26.17417 Springfield-Branson National Airport (SGF)
2016-04-30 04:52:00 63 87 59.0 2017-12-29 17:00:26.17417 Springfield-Branson National Airport (SGF)
2016-04-30 05:52:00 63 90 60.0 2017-12-29 17:00:26.17417 Springfield-Branson National Airport (SGF)
2016-04-30 06:52:00 63 90 60.0 2017-12-29 17:00:26.17417 Springfield-Branson National Airport (SGF)
2016-04-30 07:52:00 64 87 60.0 2017-12-29 17:00:26.17417 Springfield-Branson National Airport (SGF)
2016-04-30 08:52:00 67 79 60.0 2017-12-29 17:00:26.17417 Springfield-Branson National Airport (SGF)
2016-04-30 09:52:00 69 73 60.0 2017-12-29 17:00:26.17417 Springfield-Branson National Airport (SGF)
2016-04-30 10:52:00 69 73 60.0 2017-12-29 17:00:26.17417 Springfield-Branson National Airport (SGF)
2016-04-30 11:52:00 71 68 60.0 2017-12-29 17:00:26.17417 Springfield-Branson National Airport (SGF)
2016-04-30 12:52:00 73 64 60.0 2017-12-29 17:00:26.17417 Springfield-Branson National Airport (SGF)
2016-04-30 13:52:00 73 64 60.0 2017-12-29 17:00:26.17417 Springfield-Branson National Airport (SGF)
2016-04-30 14:52:00 73 62 59.0 2017-12-29 17:00:26.17417 Springfield-Branson National Airport (SGF)
2016-04-30 15:52:00 73 62 59.0 2017-12-29 17:00:26.17417 Springfield-Branson National Airport (SGF)
2016-04-30 16:52:00 72 59 57.0 2017-12-29 17:00:26.17417 Springfield-Branson National Airport (SGF)
2016-04-30 17:52:00 69 59 54.0 2017-12-29 17:00:26.17417 Springfield-Branson National Airport (SGF)
2016-04-30 18:52:00 66 63 53.0 2017-12-29 17:00:26.17417 Springfield-Branson National Airport (SGF)
2016-04-30 19:52:00 63 68 52.0 2017-12-29 17:00:26.17417 Springfield-Branson National Airport (SGF)
2016-04-30 20:52:00 60 70 50.0 2017-12-29 17:00:26.17417 Springfield-Branson National Airport (SGF)
2016-04-30 21:52:00 58 75 50.0 2017-12-29 17:00:26.17417 Springfield-Branson National Airport (SGF)
2016-04-30 22:52:00 57 78 50.0 2017-12-29 17:00:26.17417 Springfield-Branson National Airport (SGF)
2016-04-30 23:52:00 57 74 49.0 2017-12-29 17:00:26.17417 Springfield-Branson National Airport (SGF)

A total of 24 rows are displayed.